createdAt,value
2019-03-26T00:13:30.861Z,60.93
2019-03-26T00:16:00.776Z,61.02
2019-03-26T00:18:32.343Z,60.96
2019-03-26T00:21:02.479Z,61.13
2019-03-26T00:23:32.533Z,60.79
2019-03-26T00:26:02.695Z,60.87
2019-03-26T00:28:32.990Z,60.57
2019-03-26T00:31:03.555Z,60.22
2019-03-26T00:33:36.698Z,59.70
2019-03-26T00:36:05.167Z,59.96
2019-03-26T00:38:35.242Z,60.16
2019-03-26T00:41:08.396Z,60.11
2019-03-26T00:43:38.896Z,59.84
2019-03-26T00:46:09.723Z,59.79
2019-03-26T00:48:39.889Z,59.89
2019-03-26T00:51:09.857Z,60.15
2019-03-26T00:53:40.596Z,60.08
2019-03-26T00:56:11.713Z,60.10
2019-03-26T00:58:42.598Z,60.20
2019-03-26T01:01:12.519Z,60.26
2019-03-26T01:03:43.270Z,60.25
2019-03-26T01:06:15.566Z,60.00
2019-03-26T01:08:45.539Z,60.04
2019-03-26T01:11:15.556Z,59.53
2019-03-26T01:13:45.763Z,59.41
2019-03-26T01:16:18.869Z,59.18
2019-03-26T01:18:49.263Z,59.22
2019-03-26T01:21:22.049Z,58.83
2019-03-26T01:23:52.013Z,58.76
2019-03-26T01:26:22.390Z,58.59
2019-03-26T01:28:52.472Z,58.36
2019-03-26T01:31:22.637Z,58.00
2019-03-26T01:33:52.656Z,57.57
2019-03-26T01:36:23.384Z,56.86
2019-03-26T01:38:53.796Z,56.86
2019-03-26T01:41:23.732Z,56.38
2019-03-26T01:43:53.914Z,56.21
2019-03-26T01:46:26.449Z,56.10
2019-03-26T01:48:58.335Z,55.80
2019-03-26T01:51:28.488Z,54.97
2019-03-26T01:53:59.781Z,54.09
2019-03-26T01:56:32.965Z,54.14
2019-03-26T01:59:03.286Z,54.34
2019-03-26T02:01:33.581Z,53.82
2019-03-26T02:04:03.541Z,54.03
2019-03-26T02:06:35.844Z,54.51
2019-03-26T02:09:06.905Z,54.71
2019-03-26T02:11:36.967Z,55.04
2019-03-26T02:14:07.162Z,55.40
2019-03-26T02:16:37.495Z,55.53
2019-03-26T02:19:07.969Z,55.49
2019-03-26T02:21:39.307Z,55.82
2019-03-26T02:24:09.949Z,55.89
2019-03-26T02:26:40.956Z,56.07
2019-03-26T02:29:11.129Z,55.90
2019-03-26T02:31:41.140Z,55.80
2019-03-26T02:34:10.908Z,55.47
2019-03-26T02:36:41.103Z,54.52
2019-03-26T02:39:11.477Z,54.28
2019-03-26T02:41:48.099Z,53.69
2019-03-26T02:44:19.156Z,53.29
2019-03-26T02:46:49.160Z,53.30
2019-03-26T02:49:19.107Z,53.30
2019-03-26T02:51:49.162Z,53.30
2019-03-26T02:54:19.155Z,53.44
2019-03-26T02:56:49.543Z,53.79
2019-03-26T02:59:21.130Z,53.88
2019-03-26T03:01:51.214Z,53.95
2019-03-26T03:04:21.244Z,53.67
2019-03-26T03:06:51.603Z,52.93
2019-03-26T03:09:21.747Z,52.96
2019-03-26T03:11:51.851Z,52.93
2019-03-26T03:14:21.947Z,52.70
2019-03-26T03:16:52.247Z,52.96
2019-03-26T03:19:22.783Z,52.65
2019-03-26T03:21:52.865Z,53.26
2019-03-26T03:24:23.415Z,53.01
2019-03-26T03:26:53.847Z,53.21
2019-03-26T03:29:24.080Z,53.45
2019-03-26T03:31:54.777Z,54.23
2019-03-26T03:34:24.775Z,54.98
2019-03-26T03:36:54.719Z,55.53
2019-03-26T03:39:25.216Z,56.14
2019-03-26T03:41:55.990Z,56.14
2019-03-26T03:44:28.284Z,56.49
2019-03-26T03:46:59.448Z,56.69
2019-03-26T03:49:30.811Z,55.08
2019-03-26T03:52:02.151Z,56.02
2019-03-26T03:54:32.100Z,55.88
2019-03-26T03:57:02.782Z,56.08
2019-03-26T03:59:32.950Z,55.70
2019-03-26T04:02:03.719Z,55.80
2019-03-26T04:04:33.582Z,55.12
2019-03-26T04:07:03.596Z,55.18
2019-03-26T04:09:35.051Z,55.09
2019-03-26T04:12:05.062Z,54.56
2019-03-26T04:14:34.960Z,54.17
2019-03-26T04:17:04.960Z,54.34
2019-03-26T04:19:35.404Z,54.63
2019-03-26T04:22:05.626Z,54.19
2019-03-26T04:24:36.205Z,53.08
2019-03-26T04:27:07.203Z,53.17
2019-03-26T04:29:37.899Z,53.17
2019-03-26T04:32:08.066Z,53.05
2019-03-26T04:34:37.990Z,53.35
2019-03-26T04:37:08.136Z,53.32
2019-03-26T04:39:38.444Z,53.37
2019-03-26T04:42:14.309Z,53.74
2019-03-26T04:44:44.811Z,53.92
2019-03-26T04:47:14.977Z,53.96
2019-03-26T04:49:45.914Z,54.18
2019-03-26T04:52:18.282Z,54.36
2019-03-26T04:54:48.258Z,54.55
2019-03-26T04:57:18.618Z,54.50
2019-03-26T04:59:50.755Z,53.97
2019-03-26T05:02:21.402Z,54.63
2019-03-26T05:04:51.453Z,55.07
2019-03-26T05:07:23.985Z,55.25
2019-03-26T05:10:01.147Z,55.66
2019-03-26T05:12:31.810Z,55.12
2019-03-26T05:15:04.522Z,55.02
2019-03-26T05:17:34.725Z,54.76
2019-03-26T05:20:10.151Z,54.70
2019-03-26T05:22:41.142Z,54.66
2019-03-26T05:25:14.179Z,54.88
2019-03-26T05:27:47.658Z,54.79
2019-03-26T05:30:20.471Z,54.81
2019-03-26T05:32:51.160Z,54.48
2019-03-26T05:35:21.533Z,54.06
2019-03-26T05:37:53.440Z,53.98
2019-03-26T05:40:23.663Z,53.64
2019-03-26T05:42:53.756Z,55.22
2019-03-26T05:45:23.799Z,55.80
2019-03-26T05:47:54.677Z,56.45
2019-03-26T05:50:26.522Z,57.08
2019-03-26T05:52:56.617Z,57.25
2019-03-26T05:55:26.485Z,57.44
2019-03-26T05:57:56.903Z,57.78
2019-03-26T06:00:27.614Z,57.71
2019-03-26T06:02:57.904Z,57.54
2019-03-26T06:05:29.683Z,57.05
2019-03-26T06:07:59.680Z,57.53
2019-03-26T06:10:29.338Z,57.35
2019-03-26T06:12:59.247Z,56.86
2019-03-26T06:15:29.077Z,56.45
2019-03-26T06:17:59.995Z,56.34
2019-03-26T06:20:31.412Z,55.94
2019-03-26T06:23:01.613Z,55.70
2019-03-26T06:25:31.637Z,55.26
2019-03-26T06:28:01.729Z,54.65
2019-03-26T06:30:32.356Z,52.98
2019-03-26T06:33:02.367Z,52.39
2019-03-26T06:35:32.385Z,52.54
2019-03-26T06:38:02.524Z,51.47
2019-03-26T06:40:32.616Z,51.52
2019-03-26T06:43:02.691Z,51.25
2019-03-26T06:45:32.674Z,51.08
2019-03-26T06:48:05.090Z,51.23
2019-03-26T06:50:35.115Z,50.76
2019-03-26T06:53:05.375Z,50.72
2019-03-26T06:55:35.403Z,50.52
2019-03-26T06:58:05.441Z,50.89
2019-03-26T07:00:35.767Z,50.35
2019-03-26T07:03:06.784Z,50.70
2019-03-26T07:05:36.689Z,50.34
2019-03-26T07:08:06.604Z,50.66
2019-03-26T07:10:38.028Z,50.80
2019-03-26T07:13:08.240Z,50.70
2019-03-26T07:15:42.210Z,50.76
2019-03-26T07:18:12.377Z,50.03
2019-03-26T07:20:42.580Z,50.18
2019-03-26T07:23:12.486Z,49.90
2019-03-26T07:25:42.542Z,49.88
2019-03-26T07:28:12.605Z,50.08
2019-03-26T07:30:44.011Z,49.61
2019-03-26T07:33:14.423Z,49.78
2019-03-26T07:35:44.865Z,49.71
2019-03-26T07:38:14.901Z,50.08
2019-03-26T07:40:45.452Z,49.81
2019-03-26T07:43:15.384Z,49.92
2019-03-26T07:45:45.366Z,50.36
2019-03-26T07:48:15.558Z,49.84
2019-03-26T07:50:49.094Z,49.91
2019-03-26T07:53:19.940Z,49.91
2019-03-26T07:55:50.025Z,50.20
2019-03-26T07:58:20.392Z,50.79
2019-03-26T08:00:50.455Z,49.80
2019-03-26T08:03:21.245Z,50.27
2019-03-26T08:05:51.744Z,50.36
2019-03-26T08:08:22.006Z,50.27
2019-03-26T08:10:54.979Z,51.26
2019-03-26T08:13:24.938Z,51.37
2019-03-26T08:15:55.120Z,51.26
2019-03-26T08:18:25.364Z,51.90
2019-03-26T08:20:57.485Z,51.27
2019-03-26T08:23:26.756Z,51.27
2019-03-26T08:25:56.615Z,51.31
2019-03-26T08:28:26.443Z,50.82
2019-03-26T08:30:56.227Z,50.67
2019-03-26T08:33:26.509Z,51.61
2019-03-26T08:35:59.431Z,51.60
2019-03-26T08:38:33.409Z,51.71
2019-03-26T08:41:03.080Z,51.49
2019-03-26T08:43:33.854Z,51.65
2019-03-26T08:46:03.735Z,51.96
2019-03-26T08:48:34.160Z,52.59
2019-03-26T08:51:04.167Z,52.11
2019-03-26T08:53:34.315Z,51.71
2019-03-26T08:56:04.407Z,51.55
2019-03-26T08:58:34.546Z,51.34
2019-03-26T09:01:08.043Z,51.52
2019-03-26T09:03:38.367Z,51.38
2019-03-26T09:06:08.852Z,51.13
2019-03-26T09:08:38.979Z,50.84
2019-03-26T09:11:09.161Z,50.87
2019-03-26T09:13:44.634Z,50.81
2019-03-26T09:16:16.756Z,50.72
2019-03-26T09:18:47.892Z,50.84
2019-03-26T09:21:22.951Z,49.72
2019-03-26T09:23:52.886Z,49.07
2019-03-26T09:26:23.716Z,47.94
2019-03-26T09:28:53.725Z,47.52
2019-03-26T09:31:26.998Z,48.16
2019-03-26T09:33:57.384Z,49.22
2019-03-26T09:36:27.369Z,48.54
2019-03-26T09:38:57.243Z,48.85
2019-03-26T09:41:27.369Z,49.15
2019-03-26T09:43:59.407Z,47.91
2019-03-26T09:46:32.723Z,46.69
2019-03-26T09:49:02.809Z,46.43
2019-03-26T09:51:32.810Z,46.84
2019-03-26T09:54:02.820Z,47.15
2019-03-26T09:56:32.833Z,47.77
2019-03-26T09:59:02.755Z,48.13
2019-03-26T10:01:32.754Z,48.69
2019-03-26T10:04:02.781Z,49.02
2019-03-26T10:06:34.894Z,49.43
2019-03-26T10:09:06.565Z,49.88
2019-03-26T10:11:36.716Z,49.70
2019-03-26T10:14:06.731Z,49.70
2019-03-26T10:16:37.049Z,50.39
2019-03-26T10:19:07.962Z,49.96
2019-03-26T10:21:38.149Z,49.88
2019-03-26T10:24:08.218Z,50.30
2019-03-26T10:26:38.660Z,49.90
2019-03-26T10:29:23.957Z,49.93
2019-03-26T10:31:40.715Z,50.03
2019-03-26T10:34:10.775Z,49.53
2019-03-26T10:36:41.720Z,49.37
2019-03-26T10:39:12.316Z,49.72
2019-03-26T10:41:45.373Z,49.75
2019-03-26T10:44:15.860Z,49.71
2019-03-26T10:46:46.279Z,49.56
2019-03-26T10:49:16.179Z,49.46
2019-03-26T10:51:46.041Z,49.59
2019-03-26T10:54:15.848Z,49.59
2019-03-26T10:56:48.786Z,49.22
2019-03-26T10:59:18.606Z,48.71
2019-03-26T11:01:48.593Z,47.55
2019-03-26T11:04:18.556Z,47.78
2019-03-26T11:06:48.635Z,47.82
2019-03-26T11:09:25.366Z,47.34
2019-03-26T11:11:50.405Z,46.94
2019-03-26T11:14:20.555Z,46.35
2019-03-26T11:16:50.316Z,46.01
2019-03-26T11:19:20.190Z,45.67
2019-03-26T11:21:49.982Z,45.68
2019-03-26T11:24:19.802Z,45.47
2019-03-26T11:26:50.540Z,45.13
2019-03-26T11:29:21.254Z,45.40
2019-03-26T11:31:51.139Z,45.16
2019-03-26T11:34:21.664Z,44.83
2019-03-26T11:36:51.735Z,44.56
2019-03-26T11:39:32.269Z,44.32
2019-03-26T11:41:53.153Z,43.95
2019-03-26T11:44:23.046Z,44.10
2019-03-26T11:46:54.175Z,43.49
2019-03-26T11:49:26.503Z,43.00
2019-03-26T11:51:57.370Z,42.95
2019-03-26T11:54:27.773Z,43.33
2019-03-26T11:56:58.528Z,42.89
2019-03-26T11:59:28.888Z,43.05
2019-03-26T12:01:58.668Z,42.24
2019-03-26T12:04:31.011Z,42.32
2019-03-26T12:07:01.635Z,42.90
2019-03-26T12:09:31.524Z,43.62
2019-03-26T12:12:04.134Z,44.13
2019-03-26T12:14:34.073Z,44.42
2019-03-26T12:17:03.914Z,44.32
2019-03-26T12:19:36.872Z,44.29
2019-03-26T12:22:07.014Z,44.33
2019-03-26T12:24:38.962Z,45.02
2019-03-26T12:27:08.681Z,45.73
2019-03-26T12:29:38.483Z,45.72
2019-03-26T12:32:08.540Z,45.69
2019-03-26T12:34:38.428Z,45.61
2019-03-26T12:37:08.170Z,45.29
2019-03-26T12:39:37.982Z,44.57
2019-03-26T12:42:07.798Z,44.78
2019-03-26T12:44:37.960Z,45.13
2019-03-26T12:47:09.831Z,44.88
2019-03-26T12:49:40.682Z,44.47
2019-03-26T12:52:10.420Z,44.23
2019-03-26T12:54:40.199Z,43.97
2019-03-26T12:57:12.595Z,44.15
2019-03-26T12:59:42.174Z,44.50
2019-03-26T13:02:13.790Z,44.25
2019-03-26T13:04:44.782Z,44.81
2019-03-26T13:07:17.409Z,45.74
2019-03-26T13:09:47.240Z,45.78
2019-03-26T13:12:19.873Z,45.54
2019-03-26T13:14:51.983Z,45.23
2019-03-26T13:17:24.842Z,44.73
2019-03-26T13:19:54.813Z,44.89
2019-03-26T13:22:25.126Z,45.14
2019-03-26T13:24:54.975Z,45.23
2019-03-26T13:27:24.719Z,45.72
2019-03-26T13:29:54.535Z,46.05
2019-03-26T13:32:24.240Z,46.23
2019-03-26T13:34:57.048Z,46.20
2019-03-26T13:37:29.125Z,46.33
2019-03-26T13:39:59.223Z,46.42
2019-03-26T13:42:29.121Z,46.43
2019-03-26T13:44:59.062Z,46.30
2019-03-26T13:47:28.937Z,46.30
2019-03-26T13:49:58.753Z,46.08
2019-03-26T13:52:28.865Z,46.08
2019-03-26T13:54:58.937Z,46.44
2019-03-26T13:57:28.716Z,46.83
2019-03-26T13:59:58.926Z,47.15
2019-03-26T14:02:28.916Z,47.96
2019-03-26T14:04:59.187Z,48.33
2019-03-26T14:07:28.982Z,48.81
2019-03-26T14:09:58.868Z,49.34
2019-03-26T14:12:28.697Z,49.56
2019-03-26T14:14:58.880Z,49.56
2019-03-26T14:17:29.874Z,49.35
2019-03-26T14:20:00.495Z,49.44
2019-03-26T14:22:31.554Z,49.68
2019-03-26T14:25:03.463Z,49.70
2019-03-26T14:27:34.092Z,49.73
2019-03-26T14:30:03.978Z,49.46
2019-03-26T14:32:34.149Z,49.03
2019-03-26T14:35:05.687Z,49.19
2019-03-26T14:37:35.515Z,49.45
2019-03-26T14:40:13.031Z,49.37
2019-03-26T14:42:42.934Z,49.62
2019-03-26T14:45:12.849Z,49.60
2019-03-26T14:47:43.458Z,49.53
2019-03-26T14:50:13.679Z,49.76
2019-03-26T14:52:43.873Z,49.57
2019-03-26T14:55:13.910Z,49.54
2019-03-26T14:57:47.659Z,49.65
2019-03-26T15:00:17.879Z,49.85
2019-03-26T15:02:59.730Z,50.05
2019-03-26T15:05:29.585Z,50.02
2019-03-26T15:08:02.790Z,50.13
2019-03-26T15:10:32.689Z,50.27
2019-03-26T15:13:02.819Z,50.37
2019-03-26T15:15:36.564Z,50.35
2019-03-26T15:18:06.386Z,50.29
2019-03-26T15:20:39.304Z,50.07
2019-03-26T15:23:11.397Z,50.18
2019-03-26T15:25:41.374Z,50.10
2019-03-26T15:28:14.143Z,49.55
2019-03-26T15:30:43.975Z,49.15
2019-03-26T15:33:13.803Z,49.06
2019-03-26T15:35:43.546Z,49.12
2019-03-26T15:38:13.375Z,49.12
2019-03-26T15:40:43.184Z,48.77
2019-03-26T15:43:12.989Z,48.77
2019-03-26T15:45:42.789Z,48.53
2019-03-26T15:48:12.864Z,48.30
2019-03-26T15:50:43.840Z,48.50
2019-03-26T15:53:13.842Z,48.33
2019-03-26T15:55:44.217Z,48.50
2019-03-26T15:58:16.612Z,48.48
2019-03-26T16:00:46.544Z,48.60
2019-03-26T16:03:16.318Z,48.61
2019-03-26T16:05:46.133Z,48.76
2019-03-26T16:08:15.897Z,48.95
2019-03-26T16:10:45.809Z,49.04
2019-03-26T16:13:15.662Z,49.01
2019-03-26T16:15:45.542Z,48.79
2019-03-26T16:18:15.430Z,48.77
2019-03-26T16:20:45.226Z,48.73
2019-03-26T16:23:15.099Z,48.60
2019-03-26T16:25:44.896Z,48.35
2019-03-26T16:28:14.692Z,48.00
2019-03-26T16:30:44.757Z,48.02
2019-03-26T16:33:18.034Z,48.11
2019-03-26T16:35:50.632Z,48.28
2019-03-26T16:38:20.586Z,48.41
2019-03-26T16:40:50.632Z,48.56
2019-03-26T16:43:20.589Z,48.60
2019-03-26T16:45:50.568Z,48.44
2019-03-26T16:48:22.974Z,48.50
2019-03-26T16:50:53.369Z,48.65
2019-03-26T16:53:23.234Z,48.89
2019-03-26T16:55:53.129Z,48.83
2019-03-26T16:58:22.888Z,48.97
2019-03-26T17:00:53.570Z,49.12
2019-03-26T17:03:31.296Z,49.34
2019-03-26T17:05:54.987Z,49.16
2019-03-26T17:08:24.973Z,49.33
2019-03-26T17:10:55.391Z,49.49
2019-03-26T17:13:25.304Z,49.11
2019-03-26T17:15:55.154Z,48.96
2019-03-26T17:18:24.999Z,49.18
2019-03-26T17:20:57.287Z,49.05
2019-03-26T17:23:29.329Z,48.97
2019-03-26T17:25:59.117Z,48.74
2019-03-26T17:28:32.792Z,48.77
2019-03-26T17:31:02.631Z,48.70
2019-03-26T17:33:32.547Z,48.89
2019-03-26T17:36:02.855Z,48.90
2019-03-26T17:38:32.694Z,49.02
2019-03-26T17:41:02.504Z,48.98
2019-03-26T17:43:32.349Z,49.27
2019-03-26T17:46:02.130Z,49.03
2019-03-26T17:48:32.835Z,48.97
2019-03-26T17:51:02.777Z,49.16
2019-03-26T17:53:32.959Z,49.24
2019-03-26T17:56:02.982Z,49.58
2019-03-26T17:58:32.804Z,49.91
2019-03-26T18:01:03.201Z,49.34
2019-03-26T18:03:33.897Z,49.29
2019-03-26T18:06:05.207Z,49.43
2019-03-26T18:08:38.714Z,49.48
2019-03-26T18:11:08.564Z,49.42
2019-03-26T18:13:38.373Z,49.95
2019-03-26T18:16:09.271Z,49.82
2019-03-26T18:18:44.855Z,50.28
2019-03-26T18:21:14.936Z,50.62
2019-03-26T18:23:44.686Z,50.77
2019-03-26T18:26:14.459Z,51.10
2019-03-26T18:28:44.274Z,51.11
2019-03-26T18:31:14.060Z,50.98
2019-03-26T18:33:43.961Z,51.19
2019-03-26T18:36:15.634Z,50.44
2019-03-26T18:38:45.495Z,50.00
2019-03-26T18:41:15.359Z,50.03
2019-03-26T18:43:46.435Z,50.49
2019-03-26T18:46:16.240Z,50.48
2019-03-26T18:48:46.207Z,50.46
2019-03-26T18:51:16.005Z,50.45
2019-03-26T18:53:46.580Z,50.06
2019-03-26T18:56:16.321Z,50.30
2019-03-26T18:58:46.319Z,50.56
2019-03-26T19:01:16.209Z,50.26
2019-03-26T19:03:45.992Z,50.29
2019-03-26T19:06:18.944Z,50.49
2019-03-26T19:08:48.804Z,50.63
2019-03-26T19:11:18.657Z,50.59
2019-03-26T19:13:48.508Z,50.44
2019-03-26T19:16:18.305Z,50.71
2019-03-26T19:18:48.084Z,50.78
2019-03-26T19:21:18.211Z,50.37
2019-03-26T19:24:03.089Z,50.32
2019-03-26T19:26:22.045Z,50.12
2019-03-26T19:28:51.808Z,50.17
2019-03-26T19:31:23.895Z,50.28
2019-03-26T19:33:53.794Z,50.54
2019-03-26T19:36:23.886Z,50.41
2019-03-26T19:38:53.709Z,50.37
2019-03-26T19:41:24.006Z,50.42
2019-03-26T19:43:54.345Z,51.09
2019-03-26T19:46:24.122Z,50.50
2019-03-26T19:48:54.068Z,50.68
2019-03-26T19:51:23.961Z,50.34
2019-03-26T19:53:53.657Z,50.37
2019-03-26T19:56:23.767Z,50.39
2019-03-26T19:58:53.526Z,50.44
2019-03-26T20:01:23.301Z,50.51
2019-03-26T20:03:55.962Z,50.75
2019-03-26T20:06:26.030Z,50.73
2019-03-26T20:08:58.080Z,50.89
2019-03-26T20:11:27.878Z,51.01
2019-03-26T20:13:57.679Z,51.00
2019-03-26T20:16:36.529Z,50.98
2019-03-26T20:18:58.871Z,51.03
2019-03-26T20:21:28.636Z,51.33
2019-03-26T20:23:58.438Z,51.45
2019-03-26T20:26:28.180Z,51.52
2019-03-26T20:29:00.045Z,51.75
2019-03-26T20:31:29.785Z,51.98
2019-03-26T20:33:59.643Z,52.32
2019-03-26T20:36:29.482Z,52.34
2019-03-26T20:38:59.361Z,52.31
2019-03-26T20:41:29.164Z,52.02
2019-03-26T20:43:58.946Z,51.89
2019-03-26T20:46:28.693Z,52.24
2019-03-26T20:48:58.466Z,52.70
2019-03-26T20:51:28.409Z,52.43
2019-03-26T20:53:58.189Z,52.90
2019-03-26T20:56:28.095Z,52.64
2019-03-26T20:58:59.173Z,52.45
2019-03-26T21:01:28.967Z,52.24
2019-03-26T21:03:58.671Z,52.41
2019-03-26T21:06:28.773Z,52.68
2019-03-26T21:08:59.381Z,52.88
2019-03-26T21:11:29.212Z,52.86
2019-03-26T21:13:59.024Z,52.78
2019-03-26T21:16:28.939Z,52.83
2019-03-26T21:18:58.751Z,52.86
2019-03-26T21:21:28.583Z,53.14
2019-03-26T21:23:58.378Z,53.08
2019-03-26T21:26:28.142Z,53.03
2019-03-26T21:28:58.575Z,52.94
2019-03-26T21:31:28.392Z,53.10
2019-03-26T21:33:58.139Z,53.23
2019-03-26T21:36:27.948Z,53.15
2019-03-26T21:38:58.117Z,53.28
2019-03-26T21:41:33.012Z,53.25
2019-03-26T21:44:05.203Z,53.22
2019-03-26T21:46:35.040Z,52.94
2019-03-26T21:49:07.763Z,53.37
2019-03-26T21:51:37.829Z,53.25
2019-03-26T21:54:08.569Z,53.18
2019-03-26T21:56:38.344Z,53.62
2019-03-26T21:59:08.106Z,53.32
2019-03-26T22:01:37.882Z,53.38
2019-03-26T22:04:09.527Z,53.49
2019-03-26T22:06:39.406Z,53.49
2019-03-26T22:09:09.530Z,53.72
2019-03-26T22:11:49.088Z,53.96
2019-03-26T22:14:17.892Z,53.70
2019-03-26T22:16:42.519Z,53.54
2019-03-26T22:19:13.344Z,53.41
2019-03-26T22:21:43.184Z,53.71
2019-03-26T22:24:17.303Z,53.69
2019-03-26T22:26:47.781Z,53.66
2019-03-26T22:29:17.529Z,53.66
2019-03-26T22:31:50.456Z,53.68
2019-03-26T22:34:27.584Z,53.77
2019-03-26T22:36:57.409Z,53.73
2019-03-26T22:39:30.592Z,53.91
2019-03-26T22:42:00.359Z,53.99
2019-03-26T22:44:31.624Z,53.97
2019-03-26T22:47:01.777Z,54.13
2019-03-26T22:49:31.409Z,54.34
2019-03-26T22:52:01.364Z,54.62
2019-03-26T22:54:31.266Z,54.61
2019-03-26T22:57:01.056Z,54.58
2019-03-26T22:59:30.795Z,54.45
2019-03-26T23:02:00.616Z,54.43
2019-03-26T23:04:30.936Z,54.45
2019-03-26T23:07:00.736Z,54.43
2019-03-26T23:09:30.447Z,54.57
2019-03-26T23:12:00.187Z,54.84
2019-03-26T23:14:30.127Z,54.74
2019-03-26T23:16:59.936Z,54.71
2019-03-26T23:19:31.139Z,54.62
2019-03-26T23:22:01.001Z,54.96
2019-03-26T23:24:30.786Z,55.18
2019-03-26T23:27:00.696Z,55.35
2019-03-26T23:29:30.508Z,55.64
2019-03-26T23:32:00.248Z,55.71
2019-03-26T23:34:30.135Z,55.62
2019-03-26T23:37:00.099Z,55.81
2019-03-26T23:39:29.938Z,55.94
2019-03-26T23:41:59.664Z,56.02
2019-03-26T23:44:29.414Z,55.99
2019-03-26T23:47:01.249Z,55.95
2019-03-26T23:49:31.165Z,56.26
2019-03-26T23:52:00.970Z,56.11
2019-03-26T23:54:30.860Z,56.21
2019-03-26T23:57:00.719Z,56.45
2019-03-26T23:59:30.564Z,56.61
